createdAt,value
2018-06-18T00:01:26.231Z,17.04
2018-06-18T00:02:26.296Z,17.16
2018-06-18T00:04:19.287Z,17.06
2018-06-18T00:05:19.349Z,17.05
2018-06-18T00:07:12.344Z,16.94
2018-06-18T00:08:12.405Z,16.94
2018-06-18T00:10:05.394Z,17.02
2018-06-18T00:11:05.460Z,17.02
2018-06-18T00:12:58.459Z,17.02
2018-06-18T00:13:58.519Z,17.01
2018-06-18T00:15:51.510Z,16.97
2018-06-18T00:16:51.577Z,17.02
2018-06-18T00:18:44.567Z,17.04
2018-06-18T00:19:44.626Z,16.99
2018-06-18T00:21:37.639Z,16.90
2018-06-18T00:22:37.684Z,16.96
2018-06-18T00:24:30.682Z,16.99
2018-06-18T00:25:30.746Z,16.99
2018-06-18T00:27:23.744Z,16.96
2018-06-18T00:28:23.799Z,17.12
2018-06-18T00:30:16.798Z,17.02
2018-06-18T00:31:16.867Z,16.96
2018-06-18T00:33:09.858Z,16.97
2018-06-18T00:34:09.917Z,17.05
2018-06-18T00:36:02.906Z,17.11
2018-06-18T00:37:02.969Z,17.08
2018-06-18T00:38:55.979Z,17.01
2018-06-18T00:39:56.032Z,17.02
2018-06-18T00:41:49.023Z,17.11
2018-06-18T00:42:49.095Z,17.06
2018-06-18T00:44:42.087Z,17.06
2018-06-18T00:45:42.147Z,17.06
2018-06-18T00:47:35.150Z,17.04
2018-06-18T00:48:35.208Z,17.19
2018-06-18T00:50:28.207Z,17.02
2018-06-18T00:51:28.267Z,17.05
2018-06-18T00:53:21.267Z,16.91
2018-06-18T00:54:21.325Z,16.99
2018-06-18T00:56:14.325Z,17.04
2018-06-18T00:57:14.390Z,17.01
2018-06-18T00:59:07.384Z,16.86
2018-06-18T01:00:07.440Z,16.86
2018-06-18T01:02:00.431Z,16.79
2018-06-18T01:03:00.491Z,16.74
2018-06-18T01:04:53.488Z,16.76
2018-06-18T01:05:53.542Z,16.72
2018-06-18T01:07:46.555Z,16.76
2018-06-18T01:08:46.604Z,16.81
2018-06-18T01:10:40.101Z,16.60
2018-06-18T01:11:40.163Z,16.51
2018-06-18T01:13:33.670Z,16.41
2018-06-18T01:14:33.723Z,16.35
2018-06-18T01:16:26.716Z,16.35
2018-06-18T01:17:26.773Z,16.38
2018-06-18T01:19:19.777Z,16.42
2018-06-18T01:20:19.824Z,16.35
2018-06-18T01:22:12.817Z,16.41
2018-06-18T01:23:12.879Z,16.38
2018-06-18T01:25:05.884Z,16.28
2018-06-18T01:26:05.939Z,16.41
2018-06-18T01:27:58.928Z,16.41
2018-06-18T01:28:58.989Z,16.35
2018-06-18T01:30:51.989Z,16.38
2018-06-18T01:31:52.043Z,16.41
2018-06-18T01:33:45.035Z,16.49
2018-06-18T01:34:45.098Z,16.57
2018-06-18T01:36:38.096Z,16.53
2018-06-18T01:37:38.151Z,16.54
2018-06-18T01:39:31.149Z,16.60
2018-06-18T01:40:31.205Z,16.53
2018-06-18T01:42:24.192Z,16.50
2018-06-18T01:43:24.257Z,16.53
2018-06-18T01:45:17.257Z,16.39
2018-06-18T01:46:17.308Z,16.35
2018-06-18T01:48:10.309Z,16.36
2018-06-18T01:49:10.362Z,16.28
2018-06-18T01:51:03.360Z,16.36
2018-06-18T01:52:03.414Z,16.21
2018-06-18T01:53:56.402Z,16.29
2018-06-18T01:54:56.464Z,16.24
2018-06-18T01:56:49.463Z,16.26
2018-06-18T01:57:49.517Z,16.28
2018-06-18T01:59:42.517Z,16.17
2018-06-18T02:00:42.569Z,16.28
2018-06-18T02:02:35.560Z,16.24
2018-06-18T02:03:35.620Z,16.13
2018-06-18T02:05:28.618Z,16.23
2018-06-18T02:06:28.671Z,16.20
2018-06-18T02:08:21.671Z,16.20
2018-06-18T02:09:22.025Z,16.15
2018-06-18T02:11:14.728Z,16.16
2018-06-18T02:12:14.786Z,16.10
2018-06-18T02:14:07.785Z,16.12
2018-06-18T02:15:07.847Z,16.04
2018-06-18T02:17:00.846Z,16.08
2018-06-18T02:18:00.901Z,16.05
2018-06-18T02:19:53.896Z,16.16
2018-06-18T02:20:53.955Z,16.13
2018-06-18T02:22:46.956Z,16.21
2018-06-18T02:23:47.019Z,16.15
2018-06-18T02:25:40.013Z,16.12
2018-06-18T02:26:40.074Z,16.12
2018-06-18T02:28:33.073Z,16.10
2018-06-18T02:29:33.129Z,16.10
2018-06-18T02:31:26.129Z,16.15
2018-06-18T02:32:26.190Z,16.17
2018-06-18T02:34:19.178Z,16.20
2018-06-18T02:35:19.243Z,16.23
2018-06-18T02:37:12.244Z,16.23
2018-06-18T02:38:12.301Z,16.21
2018-06-18T02:40:05.300Z,16.28
2018-06-18T02:41:05.361Z,16.24
2018-06-18T02:42:58.363Z,16.23
2018-06-18T02:43:58.417Z,16.29
2018-06-18T02:45:51.416Z,16.21
2018-06-18T02:46:51.474Z,16.24
2018-06-18T02:48:44.472Z,16.36
2018-06-18T02:49:44.533Z,16.23
2018-06-18T02:51:37.533Z,16.26
2018-06-18T02:52:37.592Z,16.20
2018-06-18T02:54:30.580Z,16.23
2018-06-18T02:55:30.641Z,16.28
2018-06-18T02:57:23.645Z,16.29
2018-06-18T02:58:23.704Z,16.29
2018-06-18T03:00:16.690Z,16.35
2018-06-18T03:01:16.754Z,16.43
2018-06-18T03:03:09.758Z,16.42
2018-06-18T03:04:09.815Z,16.43
2018-06-18T03:06:02.804Z,16.46
2018-06-18T03:07:02.865Z,16.43
2018-06-18T03:08:55.862Z,16.43
2018-06-18T03:09:55.916Z,16.51
2018-06-18T03:11:48.910Z,16.49
2018-06-18T03:12:48.969Z,16.42
2018-06-18T03:14:41.968Z,16.54
2018-06-18T03:15:42.027Z,16.54
2018-06-18T03:17:35.022Z,16.50
2018-06-18T03:18:35.074Z,16.64
2018-06-18T03:20:28.062Z,16.51
2018-06-18T03:21:28.127Z,16.54
2018-06-18T03:23:21.122Z,16.57
2018-06-18T03:24:21.178Z,16.54
2018-06-18T03:26:14.170Z,16.56
2018-06-18T03:27:14.233Z,16.51
2018-06-18T03:29:07.228Z,16.61
2018-06-18T03:30:07.288Z,16.53
2018-06-18T03:32:00.275Z,16.41
2018-06-18T03:33:00.349Z,16.32
2018-06-18T03:34:53.333Z,16.31
2018-06-18T03:35:53.389Z,16.36
2018-06-18T03:37:46.378Z,16.21
2018-06-18T03:38:46.441Z,16.24
2018-06-18T03:40:39.438Z,16.38
2018-06-18T03:41:39.490Z,16.33
2018-06-18T03:43:32.492Z,16.35
2018-06-18T03:44:32.546Z,16.41
2018-06-18T03:46:25.530Z,16.38
2018-06-18T03:47:25.592Z,16.46
2018-06-18T03:49:18.587Z,16.50
2018-06-18T03:50:18.645Z,16.53
2018-06-18T03:52:11.631Z,16.56
2018-06-18T03:53:11.695Z,16.49
2018-06-18T03:55:04.691Z,16.54
2018-06-18T03:56:04.771Z,16.54
2018-06-18T03:57:57.742Z,16.60
2018-06-18T03:58:57.803Z,16.56
2018-06-18T04:00:50.801Z,16.53
2018-06-18T04:01:50.856Z,16.57
2018-06-18T04:03:43.860Z,16.51
2018-06-18T04:04:43.915Z,16.54
2018-06-18T04:06:36.916Z,16.61
2018-06-18T04:07:36.978Z,16.60
2018-06-18T04:09:29.975Z,16.57
2018-06-18T04:10:30.032Z,16.65
2018-06-18T04:12:23.049Z,16.61
2018-06-18T04:13:23.083Z,16.60
2018-06-18T04:15:16.087Z,16.61
2018-06-18T04:16:16.143Z,16.65
2018-06-18T04:18:09.139Z,16.74
2018-06-18T04:19:09.203Z,16.69
2018-06-18T04:21:02.202Z,16.66
2018-06-18T04:22:02.261Z,16.69
2018-06-18T04:23:55.262Z,16.72
2018-06-18T04:24:55.321Z,16.76
2018-06-18T04:26:48.308Z,16.72
2018-06-18T04:27:48.370Z,16.79
2018-06-18T04:29:41.379Z,16.84
2018-06-18T04:30:41.430Z,16.76
2018-06-18T04:32:34.422Z,16.72
2018-06-18T04:33:34.483Z,16.75
2018-06-18T04:35:27.482Z,16.75
2018-06-18T04:36:27.537Z,16.75
2018-06-18T04:38:20.527Z,16.76
2018-06-18T04:39:20.593Z,16.79
2018-06-18T04:41:13.584Z,16.78
2018-06-18T04:42:13.642Z,16.75
2018-06-18T04:44:06.639Z,16.76
2018-06-18T04:45:06.701Z,16.75
2018-06-18T04:46:59.700Z,16.75
2018-06-18T04:47:59.757Z,16.79
2018-06-18T04:49:54.484Z,16.81
2018-06-18T04:50:54.316Z,16.86
2018-06-18T04:52:47.311Z,16.79
2018-06-18T04:53:47.375Z,16.89
2018-06-18T04:55:40.371Z,16.90
2018-06-18T04:56:40.430Z,16.83
2018-06-18T04:58:33.412Z,16.90
2018-06-18T04:59:33.474Z,16.86
2018-06-18T05:01:26.478Z,16.97
2018-06-18T05:02:26.534Z,17.02
2018-06-18T05:04:19.525Z,17.08
2018-06-18T05:05:19.586Z,17.12
2018-06-18T05:07:12.584Z,17.24
2018-06-18T05:08:12.638Z,17.31
2018-06-18T05:10:05.634Z,17.33
2018-06-18T05:11:05.690Z,17.39
2018-06-18T05:12:58.815Z,17.45
2018-06-18T05:13:58.758Z,17.46
2018-06-18T05:15:51.759Z,17.41
2018-06-18T05:16:51.813Z,17.45
2018-06-18T05:18:44.810Z,17.38
2018-06-18T05:19:44.876Z,17.44
2018-06-18T05:21:37.887Z,17.38
2018-06-18T05:22:37.927Z,17.42
2018-06-18T05:24:30.921Z,17.46
2018-06-18T05:25:30.979Z,17.46
2018-06-18T05:27:23.972Z,17.41
2018-06-18T05:28:24.029Z,17.36
2018-06-18T05:30:17.029Z,17.51
2018-06-18T05:31:17.081Z,17.36
2018-06-18T05:33:10.070Z,17.51
2018-06-18T05:34:10.134Z,17.49
2018-06-18T05:36:03.134Z,17.60
2018-06-18T05:37:03.185Z,17.52
2018-06-18T05:38:56.175Z,17.42
2018-06-18T05:39:56.236Z,17.42
2018-06-18T05:41:49.244Z,17.42
2018-06-18T05:42:49.292Z,17.41
2018-06-18T05:44:42.282Z,17.36
2018-06-18T05:45:42.346Z,17.33
2018-06-18T05:47:35.347Z,17.31
2018-06-18T05:48:35.405Z,17.26
2018-06-18T05:50:28.438Z,17.33
2018-06-18T05:51:28.451Z,17.31
2018-06-18T05:53:21.444Z,17.30
2018-06-18T05:54:21.505Z,17.41
2018-06-18T05:56:14.502Z,17.48
2018-06-18T05:57:14.560Z,17.39
2018-06-18T05:59:07.550Z,17.39
2018-06-18T06:00:07.618Z,17.36
2018-06-18T06:02:00.612Z,17.29
2018-06-18T06:03:00.663Z,17.22
2018-06-18T06:04:53.662Z,17.15
2018-06-18T06:05:53.719Z,17.20
2018-06-18T06:07:46.716Z,17.20
2018-06-18T06:08:46.772Z,17.26
2018-06-18T06:10:39.762Z,17.27
2018-06-18T06:11:39.828Z,17.33
2018-06-18T06:13:32.823Z,17.44
2018-06-18T06:14:32.879Z,17.36
2018-06-18T06:16:25.867Z,17.65
2018-06-18T06:17:25.931Z,17.67
2018-06-18T06:19:18.927Z,17.90
2018-06-18T06:20:18.984Z,17.85
2018-06-18T06:22:11.983Z,17.95
2018-06-18T06:23:12.039Z,18.07
2018-06-18T06:25:05.028Z,18.29
2018-06-18T06:26:05.089Z,18.44
2018-06-18T06:27:58.098Z,18.55
2018-06-18T06:28:58.144Z,18.62
2018-06-18T06:30:51.136Z,18.31
2018-06-18T06:31:51.195Z,18.33
2018-06-18T06:33:44.193Z,18.28
2018-06-18T06:34:44.256Z,18.13
2018-06-18T06:36:37.243Z,18.15
2018-06-18T06:37:37.307Z,18.08
2018-06-18T06:39:30.306Z,18.11
2018-06-18T06:40:30.363Z,18.11
2018-06-18T06:42:23.360Z,18.20
2018-06-18T06:43:23.417Z,18.22
2018-06-18T06:45:16.416Z,18.15
2018-06-18T06:46:16.471Z,18.15
2018-06-18T06:48:09.468Z,18.08
2018-06-18T06:49:09.524Z,18.16
2018-06-18T06:51:02.516Z,18.01
2018-06-18T06:52:02.580Z,18.05
2018-06-18T06:53:55.576Z,18.13
2018-06-18T06:54:55.632Z,18.26
2018-06-18T06:56:48.627Z,18.38
2018-06-18T06:57:48.684Z,18.52
2018-06-18T06:59:41.680Z,18.56
2018-06-18T07:00:41.738Z,18.56
2018-06-18T07:02:34.738Z,18.56
2018-06-18T07:03:34.801Z,18.56
2018-06-18T07:05:27.797Z,18.83
2018-06-18T07:06:27.855Z,18.62
2018-06-18T07:08:20.870Z,18.84
2018-06-18T07:09:20.916Z,18.89
2018-06-18T07:11:13.905Z,19.00
2018-06-18T07:12:13.970Z,19.09
2018-06-18T07:14:06.972Z,19.31
2018-06-18T07:15:07.030Z,19.24
2018-06-18T07:17:00.021Z,19.21
2018-06-18T07:18:00.086Z,19.12
2018-06-18T07:19:53.085Z,19.22
2018-06-18T07:20:53.145Z,19.36
2018-06-18T07:22:46.143Z,19.58
2018-06-18T07:23:46.203Z,19.52
2018-06-18T07:25:39.202Z,19.55
2018-06-18T07:26:39.259Z,19.81
2018-06-18T07:28:32.264Z,19.81
2018-06-18T07:29:32.314Z,19.85
2018-06-18T07:31:25.304Z,19.76
2018-06-18T07:32:25.373Z,19.79
2018-06-18T07:34:18.372Z,19.85
2018-06-18T07:35:18.431Z,19.81
2018-06-18T07:37:11.420Z,19.84
2018-06-18T07:38:11.487Z,19.89
2018-06-18T07:40:04.487Z,19.66
2018-06-18T07:41:04.546Z,19.54
2018-06-18T07:42:57.533Z,19.74
2018-06-18T07:43:57.600Z,19.71
2018-06-18T07:45:50.601Z,19.82
2018-06-18T07:46:50.659Z,19.84
2018-06-18T07:48:43.649Z,19.92
2018-06-18T07:49:43.714Z,19.99
2018-06-18T07:51:36.744Z,19.89
2018-06-18T07:52:36.773Z,19.94
2018-06-18T07:54:29.773Z,19.67
2018-06-18T07:55:29.829Z,19.62
2018-06-18T07:57:22.822Z,19.66
2018-06-18T07:58:22.888Z,19.59
2018-06-18T08:00:15.891Z,19.54
2018-06-18T08:01:15.944Z,19.54
2018-06-18T08:03:08.942Z,19.66
2018-06-18T08:04:09.002Z,19.76
2018-06-18T08:06:02.005Z,19.91
2018-06-18T08:07:02.059Z,19.92
2018-06-18T08:08:55.059Z,19.88
2018-06-18T08:09:55.170Z,20.04
2018-06-18T08:11:48.114Z,20.25
2018-06-18T08:12:48.175Z,20.37
2018-06-18T08:14:41.165Z,20.50
2018-06-18T08:15:41.232Z,20.43
2018-06-18T08:17:34.234Z,20.50
2018-06-18T08:18:34.294Z,20.74
2018-06-18T08:20:27.297Z,21.33
2018-06-18T08:21:27.350Z,21.51
2018-06-18T08:23:20.344Z,22.08
2018-06-18T08:24:20.415Z,22.62
2018-06-18T08:26:13.410Z,23.69
2018-06-18T08:27:13.527Z,23.86
2018-06-18T08:29:06.468Z,23.74
2018-06-18T08:30:06.533Z,23.93
2018-06-18T08:31:59.534Z,23.93
2018-06-18T08:32:59.597Z,24.26
2018-06-18T08:34:52.634Z,24.14
2018-06-18T08:35:52.661Z,23.98
2018-06-18T08:37:45.666Z,24.10
2018-06-18T08:38:45.726Z,23.83
2018-06-18T08:40:38.731Z,23.65
2018-06-18T08:41:38.793Z,23.23
2018-06-18T08:43:31.790Z,23.34
2018-06-18T08:44:31.865Z,22.96
2018-06-18T08:46:24.863Z,22.63
2018-06-18T08:47:24.926Z,23.37
2018-06-18T08:49:17.930Z,23.56
2018-06-18T08:50:17.993Z,23.58
2018-06-18T08:52:11.002Z,24.45
2018-06-18T08:53:11.062Z,24.01
2018-06-18T08:55:04.063Z,25.68
2018-06-18T08:56:04.133Z,25.99
2018-06-18T08:57:57.143Z,26.40
2018-06-18T08:58:57.208Z,26.93
2018-06-18T09:00:50.218Z,26.83
2018-06-18T09:01:50.284Z,26.48
2018-06-18T09:03:43.292Z,25.91
2018-06-18T09:04:43.362Z,25.66
2018-06-18T09:06:36.369Z,24.66
2018-06-18T09:07:36.435Z,23.88
2018-06-18T09:09:29.444Z,23.06
2018-06-18T09:10:29.551Z,22.76
2018-06-18T09:12:22.528Z,22.66
2018-06-18T09:13:22.593Z,22.78
2018-06-18T09:15:15.599Z,23.02
2018-06-18T09:16:15.666Z,22.90
2018-06-18T09:18:08.673Z,22.96
2018-06-18T09:19:08.732Z,22.93
2018-06-18T09:21:01.739Z,24.23
2018-06-18T09:22:01.800Z,24.35
2018-06-18T09:23:54.804Z,24.68
2018-06-18T09:24:54.868Z,24.68
2018-06-18T09:26:47.877Z,24.70
2018-06-18T09:27:47.936Z,24.30
2018-06-18T09:29:41.449Z,23.63
2018-06-18T09:30:41.515Z,23.24
2018-06-18T09:32:34.588Z,22.91
2018-06-18T09:33:34.587Z,22.80
2018-06-18T09:35:27.592Z,22.55
2018-06-18T09:36:27.662Z,22.33
2018-06-18T09:38:20.666Z,22.28
2018-06-18T09:39:20.727Z,22.32
2018-06-18T09:41:13.747Z,22.81
2018-06-18T09:42:13.791Z,23.05
2018-06-18T09:44:06.790Z,23.59
2018-06-18T09:45:06.857Z,23.98
2018-06-18T09:46:59.859Z,24.68
2018-06-18T09:47:59.944Z,24.68
2018-06-18T09:49:52.919Z,24.57
2018-06-18T09:50:52.995Z,24.23
2018-06-18T09:52:45.997Z,23.44
2018-06-18T09:53:46.057Z,23.24
2018-06-18T09:55:39.102Z,22.90
2018-06-18T09:56:39.140Z,22.84
2018-06-18T09:58:32.183Z,22.84
2018-06-18T09:59:32.202Z,22.51
2018-06-18T10:01:25.255Z,22.53
2018-06-18T10:02:25.390Z,22.50
2018-06-18T10:04:18.288Z,22.55
2018-06-18T10:05:18.345Z,22.59
2018-06-18T10:07:11.348Z,22.43
2018-06-18T10:08:11.432Z,22.68
2018-06-18T10:10:04.412Z,22.57
2018-06-18T10:11:04.476Z,22.54
2018-06-18T10:12:57.481Z,23.08
2018-06-18T10:13:57.548Z,23.15
2018-06-18T10:15:50.549Z,23.09
2018-06-18T10:16:50.620Z,23.12
2018-06-18T10:18:43.617Z,22.93
2018-06-18T10:19:43.676Z,22.85
2018-06-18T10:21:36.681Z,22.98
2018-06-18T10:22:36.749Z,23.31
2018-06-18T10:24:29.837Z,23.54
2018-06-18T10:25:29.819Z,23.59
2018-06-18T10:27:22.811Z,23.93
2018-06-18T10:28:22.883Z,23.81
2018-06-18T10:30:16.396Z,24.33
2018-06-18T10:31:16.455Z,24.66
2018-06-18T10:33:09.459Z,24.42
2018-06-18T10:34:09.524Z,24.47
2018-06-18T10:36:03.029Z,23.68
2018-06-18T10:37:03.095Z,23.40
2018-06-18T10:38:56.115Z,23.15
2018-06-18T10:39:56.161Z,23.15
2018-06-18T10:41:49.158Z,22.94
2018-06-18T10:42:49.228Z,22.99
2018-06-18T10:44:42.251Z,23.15
2018-06-18T10:45:42.291Z,23.34
2018-06-18T10:47:35.290Z,23.48
2018-06-18T10:48:35.358Z,23.55
2018-06-18T10:50:28.359Z,23.65
2018-06-18T10:51:28.420Z,23.56
2018-06-18T10:53:21.419Z,23.54
2018-06-18T10:54:21.489Z,23.69
2018-06-18T10:56:14.493Z,23.71
2018-06-18T10:57:14.553Z,23.84
2018-06-18T10:59:07.557Z,23.68
2018-06-18T11:00:07.618Z,23.68
2018-06-18T11:02:00.641Z,23.61
2018-06-18T11:03:00.691Z,23.48
2018-06-18T11:04:53.703Z,23.65
2018-06-18T11:05:53.767Z,23.34
2018-06-18T11:07:46.764Z,23.31
2018-06-18T11:08:46.830Z,23.23
2018-06-18T11:10:39.834Z,23.20
2018-06-18T11:11:39.897Z,22.94
2018-06-18T11:13:32.894Z,23.00
2018-06-18T11:14:32.961Z,23.15
2018-06-18T11:16:26.063Z,23.71
2018-06-18T11:17:26.323Z,23.93
2018-06-18T11:19:19.536Z,24.28
2018-06-18T11:20:19.599Z,24.53
2018-06-18T11:22:12.604Z,24.26
2018-06-18T11:23:12.663Z,24.08
2018-06-18T11:25:05.736Z,24.10
2018-06-18T11:26:05.732Z,24.13
2018-06-18T11:27:58.731Z,23.50
2018-06-18T11:28:58.800Z,23.61
2018-06-18T11:30:51.802Z,23.24
2018-06-18T11:31:51.865Z,23.05
2018-06-18T11:33:44.865Z,22.99
2018-06-18T11:34:44.933Z,23.00
2018-06-18T11:36:37.934Z,22.88
2018-06-18T11:37:38.049Z,22.98
2018-06-18T11:39:31.014Z,23.02
2018-06-18T11:40:31.063Z,22.99
2018-06-18T11:42:24.070Z,22.93
2018-06-18T11:43:24.192Z,22.94
2018-06-18T11:45:17.133Z,22.98
2018-06-18T11:46:17.200Z,22.98
2018-06-18T11:48:10.217Z,22.94
2018-06-18T11:49:10.265Z,22.99
2018-06-18T11:51:03.443Z,23.09
2018-06-18T11:52:03.504Z,23.13
2018-06-18T11:53:56.335Z,23.13
2018-06-18T11:54:56.398Z,23.17
2018-06-18T11:56:49.401Z,22.93
2018-06-18T11:57:49.464Z,22.98
2018-06-18T11:59:42.459Z,23.03
2018-06-18T12:00:42.528Z,23.02
2018-06-18T12:02:35.525Z,22.84
2018-06-18T12:03:35.591Z,22.66
2018-06-18T12:05:28.594Z,22.78
2018-06-18T12:06:28.654Z,22.76
2018-06-18T12:08:21.661Z,22.98
2018-06-18T12:09:21.761Z,23.09
2018-06-18T12:11:14.720Z,23.05
2018-06-18T12:12:14.784Z,23.08
2018-06-18T12:14:07.793Z,23.10
2018-06-18T12:15:07.856Z,23.18
2018-06-18T12:17:00.866Z,23.03
2018-06-18T12:18:00.922Z,23.02
2018-06-18T12:19:54.431Z,23.09
2018-06-18T12:20:54.496Z,23.13
2018-06-18T12:22:47.499Z,23.13
2018-06-18T12:23:47.560Z,23.03
2018-06-18T12:25:40.552Z,23.15
2018-06-18T12:26:40.785Z,23.31
2018-06-18T12:28:33.628Z,23.39
2018-06-18T12:29:33.688Z,23.55
2018-06-18T12:31:26.688Z,23.28
2018-06-18T12:32:26.776Z,23.00
2018-06-18T12:34:19.972Z,23.09
2018-06-18T12:35:19.843Z,23.03
2018-06-18T12:37:12.897Z,23.10
2018-06-18T12:38:13.102Z,23.25
2018-06-18T12:40:06.137Z,23.43
2018-06-18T12:41:06.024Z,23.41
2018-06-18T12:42:59.283Z,23.47
2018-06-18T12:43:59.066Z,23.43
2018-06-18T12:45:52.224Z,23.32
2018-06-18T12:46:52.114Z,23.23
2018-06-18T12:48:45.118Z,23.44
2018-06-18T12:49:45.307Z,23.66
2018-06-18T12:51:38.297Z,23.73
2018-06-18T12:52:38.245Z,23.69
2018-06-18T12:54:31.381Z,23.80
2018-06-18T12:55:31.308Z,23.76
2018-06-18T12:57:24.316Z,23.66
2018-06-18T12:58:24.443Z,23.61
2018-06-18T13:00:17.405Z,23.43
2018-06-18T13:01:17.487Z,23.44
2018-06-18T13:03:10.475Z,23.31
2018-06-18T13:04:10.512Z,23.13
2018-06-18T13:06:03.525Z,22.62
2018-06-18T13:07:03.599Z,22.57
2018-06-18T13:08:56.590Z,22.68
2018-06-18T13:09:56.663Z,22.57
2018-06-18T13:11:49.661Z,22.54
2018-06-18T13:12:49.736Z,22.57
2018-06-18T13:14:42.780Z,22.51
2018-06-18T13:15:42.809Z,22.23
2018-06-18T13:17:35.826Z,22.07
2018-06-18T13:18:35.862Z,22.14
2018-06-18T13:20:28.887Z,22.20
2018-06-18T13:21:28.934Z,22.22
2018-06-18T13:23:22.011Z,22.10
2018-06-18T13:24:22.010Z,22.11
2018-06-18T13:26:15.015Z,21.98
2018-06-18T13:27:15.074Z,21.79
2018-06-18T13:29:08.165Z,21.67
2018-06-18T13:30:08.154Z,21.62
2018-06-18T13:32:01.176Z,21.60
2018-06-18T13:33:01.203Z,21.64
2018-06-18T13:34:54.266Z,21.51
2018-06-18T13:35:54.266Z,21.46
2018-06-18T13:37:47.365Z,21.21
2018-06-18T13:38:47.374Z,20.97
2018-06-18T13:40:40.422Z,20.75
2018-06-18T13:41:40.397Z,20.60
2018-06-18T13:43:33.411Z,20.59
2018-06-18T13:44:33.495Z,20.58
2018-06-18T13:46:26.475Z,20.50
2018-06-18T13:47:26.525Z,20.65
2018-06-18T13:49:19.539Z,21.07
2018-06-18T13:50:19.598Z,21.22
2018-06-18T13:52:12.599Z,21.20
2018-06-18T13:53:12.658Z,21.40
2018-06-18T13:55:07.177Z,21.64
2018-06-18T13:56:07.226Z,21.82
2018-06-18T13:58:00.241Z,21.60
2018-06-18T13:59:00.333Z,21.46
2018-06-18T14:00:53.517Z,21.21
2018-06-18T14:01:53.363Z,21.14
2018-06-18T14:03:46.432Z,21.06
2018-06-18T14:04:46.432Z,21.03
2018-06-18T14:06:39.971Z,20.97
2018-06-18T14:07:39.484Z,20.90
2018-06-18T14:09:32.599Z,20.75
2018-06-18T14:10:32.582Z,20.97
2018-06-18T14:12:25.785Z,21.20
2018-06-18T14:13:25.632Z,21.20
2018-06-18T14:15:19.785Z,21.05
2018-06-18T14:16:19.604Z,21.00
2018-06-18T14:18:12.557Z,21.24
2018-06-18T14:19:12.608Z,21.29
2018-06-18T14:21:05.616Z,21.43
2018-06-18T14:22:05.689Z,21.40
2018-06-18T14:23:58.683Z,21.25
2018-06-18T14:24:58.737Z,21.20
2018-06-18T14:26:51.739Z,21.09
2018-06-18T14:27:51.819Z,21.05
2018-06-18T14:29:44.804Z,21.06
2018-06-18T14:30:44.874Z,21.25
2018-06-18T14:32:37.887Z,21.43
2018-06-18T14:33:37.926Z,21.48
2018-06-18T14:35:30.926Z,21.32
2018-06-18T14:36:31.051Z,21.12
2018-06-18T14:38:23.978Z,21.05
2018-06-18T14:39:24.105Z,20.97
2018-06-18T14:41:17.050Z,20.75
2018-06-18T14:42:17.185Z,20.62
2018-06-18T14:44:10.110Z,20.60
2018-06-18T14:45:10.171Z,20.72
2018-06-18T14:47:03.170Z,20.95
2018-06-18T14:48:03.241Z,20.85
2018-06-18T14:49:56.236Z,20.84
2018-06-18T14:50:56.293Z,20.88
2018-06-18T14:52:49.295Z,20.95
2018-06-18T14:53:49.355Z,20.88
2018-06-18T14:55:42.360Z,20.69
2018-06-18T14:56:42.441Z,20.82
2018-06-18T14:58:35.416Z,20.96
2018-06-18T14:59:35.485Z,21.02
2018-06-18T15:01:28.483Z,21.24
2018-06-18T15:02:28.539Z,21.35
2018-06-18T15:04:21.541Z,21.39
2018-06-18T15:05:21.606Z,21.42
2018-06-18T15:07:14.614Z,21.57
2018-06-18T15:08:14.674Z,21.66
2018-06-18T15:10:07.682Z,21.91
2018-06-18T15:11:07.734Z,22.02
2018-06-18T15:13:00.806Z,22.22
2018-06-18T15:14:02.055Z,22.26
2018-06-18T15:15:53.802Z,22.57
2018-06-18T15:16:53.855Z,22.83
2018-06-18T15:18:47.362Z,22.70
2018-06-18T15:19:47.423Z,22.69
2018-06-18T15:21:40.435Z,22.55
2018-06-18T15:22:40.495Z,22.60
2018-06-18T15:24:33.523Z,22.62
2018-06-18T15:25:33.555Z,22.45
2018-06-18T15:27:26.566Z,22.29
2018-06-18T15:28:26.627Z,22.20
2018-06-18T15:30:19.619Z,22.06
2018-06-18T15:31:19.685Z,22.20
2018-06-18T15:33:12.689Z,22.14
2018-06-18T15:34:12.756Z,22.28
2018-06-18T15:36:05.754Z,22.25
2018-06-18T15:37:05.816Z,22.20
2018-06-18T15:38:58.818Z,22.17
2018-06-18T15:39:58.876Z,22.15
2018-06-18T15:41:51.946Z,22.18
2018-06-18T15:42:51.971Z,22.35
2018-06-18T15:44:44.988Z,22.57
2018-06-18T15:45:45.034Z,22.53
2018-06-18T15:47:38.045Z,22.43
2018-06-18T15:48:38.107Z,22.35
2018-06-18T15:50:31.113Z,22.10
2018-06-18T15:51:31.172Z,22.11
2018-06-18T15:53:24.231Z,22.02
2018-06-18T15:54:24.235Z,22.00
2018-06-18T15:56:17.278Z,21.99
2018-06-18T15:57:17.378Z,21.98
2018-06-18T15:59:10.316Z,21.91
2018-06-18T16:00:10.376Z,21.80
2018-06-18T16:02:03.377Z,21.82
2018-06-18T16:03:03.439Z,21.76
2018-06-18T16:04:56.433Z,21.88
2018-06-18T16:05:56.502Z,21.99
2018-06-18T16:07:49.508Z,22.08
2018-06-18T16:08:49.571Z,22.07
2018-06-18T16:10:42.573Z,22.11
2018-06-18T16:11:42.635Z,22.14
2018-06-18T16:13:35.640Z,22.30
2018-06-18T16:14:35.698Z,22.45
2018-06-18T16:16:28.698Z,22.51
2018-06-18T16:17:28.760Z,22.60
2018-06-18T16:19:22.268Z,22.73
2018-06-18T16:20:22.330Z,22.68
2018-06-18T16:22:15.322Z,22.81
2018-06-18T16:23:15.389Z,22.73
2018-06-18T16:25:08.393Z,22.83
2018-06-18T16:26:08.453Z,22.93
2018-06-18T16:28:01.456Z,23.10
2018-06-18T16:29:01.514Z,22.99
2018-06-18T16:30:54.517Z,22.98
2018-06-18T16:31:54.584Z,22.99
2018-06-18T16:33:47.589Z,22.85
2018-06-18T16:34:47.644Z,22.70
2018-06-18T16:36:40.669Z,22.76
2018-06-18T16:37:40.709Z,22.57
2018-06-18T16:39:33.714Z,22.59
2018-06-18T16:40:33.772Z,22.45
2018-06-18T16:42:26.769Z,22.38
2018-06-18T16:43:26.833Z,22.36
2018-06-18T16:45:19.839Z,22.39
2018-06-18T16:46:19.901Z,22.33
2018-06-18T16:48:12.917Z,22.53
2018-06-18T16:49:12.963Z,22.47
2018-06-18T16:51:05.962Z,22.43
2018-06-18T16:52:06.026Z,22.33
2018-06-18T16:53:59.033Z,22.51
2018-06-18T16:54:59.096Z,22.51
2018-06-18T16:56:52.594Z,22.60
2018-06-18T16:57:52.667Z,22.50
2018-06-18T16:59:45.700Z,22.69
2018-06-18T17:00:45.744Z,22.60
2018-06-18T17:02:38.747Z,22.55
2018-06-18T17:03:38.802Z,22.48
2018-06-18T17:05:31.806Z,22.60
2018-06-18T17:06:31.868Z,22.60
2018-06-18T17:08:24.862Z,22.63
2018-06-18T17:09:24.937Z,22.53
2018-06-18T17:11:17.934Z,22.59
2018-06-18T17:12:17.991Z,22.70
2018-06-18T17:14:10.994Z,22.66
2018-06-18T17:15:11.054Z,22.51
2018-06-18T17:17:04.056Z,22.54
2018-06-18T17:18:04.155Z,22.57
2018-06-18T17:19:57.121Z,22.62
2018-06-18T17:20:57.180Z,22.80
2018-06-18T17:22:50.179Z,22.96
2018-06-18T17:23:50.239Z,22.88
2018-06-18T17:25:54.869Z,22.88
2018-06-18T17:26:54.925Z,22.87
2018-06-18T17:28:47.927Z,22.78
2018-06-18T17:29:47.992Z,22.72
2018-06-18T17:31:40.999Z,22.66
2018-06-18T17:32:41.060Z,22.48
2018-06-18T17:34:34.068Z,22.35
2018-06-18T17:35:34.131Z,22.33
2018-06-18T17:37:27.128Z,22.23
2018-06-18T17:38:27.191Z,22.25
2018-06-18T17:40:20.193Z,22.17
2018-06-18T17:41:20.256Z,22.04
2018-06-18T17:43:13.256Z,22.11
2018-06-18T17:44:13.324Z,22.18
2018-06-18T17:46:06.322Z,22.25
2018-06-18T17:47:06.386Z,22.25
2018-06-18T17:48:59.382Z,22.23
2018-06-18T17:49:59.444Z,22.23
2018-06-18T17:51:52.450Z,22.18
2018-06-18T17:52:52.506Z,22.15
2018-06-18T17:54:45.578Z,22.20
2018-06-18T17:55:45.574Z,22.26
2018-06-18T17:57:38.574Z,22.18
2018-06-18T17:58:38.629Z,22.13
2018-06-18T18:00:31.645Z,22.02
2018-06-18T18:01:31.704Z,22.06
2018-06-18T18:03:24.698Z,21.89
2018-06-18T18:04:24.767Z,22.00
2018-06-18T18:06:17.784Z,21.96
2018-06-18T18:07:17.841Z,22.00
2018-06-18T18:09:10.838Z,22.04
2018-06-18T18:10:10.902Z,22.02
2018-06-18T18:12:03.912Z,21.92
2018-06-18T18:13:04.015Z,21.83
2018-06-18T18:14:56.957Z,21.91
2018-06-18T18:15:57.025Z,21.73
2018-06-18T18:17:50.024Z,21.73
2018-06-18T18:18:50.092Z,21.88
2018-06-18T18:20:43.091Z,21.79
2018-06-18T18:21:43.151Z,21.85
2018-06-18T18:23:36.150Z,21.88
2018-06-18T18:24:36.213Z,21.92
2018-06-18T18:26:29.747Z,21.92
2018-06-18T18:27:29.785Z,21.98
2018-06-18T18:29:23.042Z,21.88
2018-06-18T18:30:22.847Z,21.80
2018-06-18T18:32:15.848Z,21.77
2018-06-18T18:33:15.908Z,21.80
2018-06-18T18:35:08.901Z,21.72